Monday, November 20, 2017, 6:50 PM GMT
Back to Local

CYCX, Gagetown Can-Mil

Location: , , Canada Lat: 45.833
Local Time: 6:50 PM GMT (18:50 GMT) Lon: -66.433
Time Zone: GMT Elev: 167 ft

Show me the last for .
Show Decoded

2017-11-20 18:00 METAR CYCX 201800Z 28011G20KT 15SM -SHSN BKN035 BKN080 00/M09 A2959 RMK SC6AC1
                 DA-1180FT PCPN VRY LGT SLP024 =
2017-11-20 17:00 METAR CYCX 201700Z 29010G19KT 15SM BKN035 BKN080 01/M09 A2959 RMK SC5AC2
                 DA-1117FT SLP023 =
2017-11-20 16:00 METAR CYCX 201600Z 28018G26KT 15SM BKN035 M01/M10 A2959 RMK SC6 DA-1347FT SLP022
                 =
2017-11-20 15:00 METAR CYCX 201500Z 26014G24KT 15SM BKN033 M01/M09 A2959 RMK SC7 DA-1397FT SLP023
                 =
2017-11-20 14:28 METAR CYCX 201428Z 27012G17KT 15SM BKN031 M01/M08 A2958 RMK SC7 DA-1357FT SLP019
                 =
2017-11-20 14:00 METAR CYCX 201400Z 28016G22KT 15SM -SHSN OVC031 M02/M09 A2957 RMK SC8 DA-1399FT
                 PCPN VRY LGT SLP016 =
2017-11-20 13:00 METAR CYCX 201300Z 27009G16KT 15SM -SHSN BKN031 OVC070 M01/M07 A2955 RMK SC6AC2
                 DA-1306FT SLP009 =
2017-11-20 12:00 METAR CYCX 201200Z 26008KT 15SM OVC031 M01/M07 A2953 RMK SC8 DA-1282FT SLP001 =
2017-11-20 11:00 METAR CYCX 201100Z 26011G16KT 15SM OVC031 M01/M08 A2950 RMK SC8 DA-1235FT SLP992
                 =
2017-11-20 10:00 METAR CYCX 201000Z 28007KT 15SM OVC029 M01/M07 A2946 RMK SC8 DA-1173FT SLP980 =
2017-11-20 09:00 METAR CYCX 200900Z 28011G18KT 15SM OVC030 M01/M07 A2944 RMK SC8 DA-1111FT SLP972
                 =
2017-11-20 08:00 METAR CYCX 200800Z 29012KT 250V310 15SM OVC030 M00/M07 A2943 RMK SC8 DA-1061FT
                 SLP968 =
2017-11-20 07:00 METAR CYCX 200700Z CCA 27017G26KT 15SM OVC030 M00/M06 A2942 RMK SC8 DA-1023FT
                 SLP965 =
2017-11-20 06:00 METAR CYCX 200600Z 26013G18KT 15SM OVC026 M00/M05 A2938 RMK SC8 DA-958FT SLP950
                 =
2017-11-20 05:00 METAR CYCX 200500Z 27018G25KT 15SM OVC021 01/M05 A2934 RMK SC8 DA-823FT SLP936 =
2017-11-20 04:00 METAR CYCX 200400Z 28016G21KT 15SM BKN024 01/M03 A2931 RMK SC6 DA-717FT SLP925 =
2017-11-20 03:00 METAR CYCX 200300Z 27016KT 15SM OVC022 02/M02 A2926 RMK SC8 DA-539FT SLP910 =
2017-11-20 02:00 METAR CYCX 200200Z 26013G20KT 15SM OVC020 03/M00 A2921 RMK SC8 DA-384FT PRESRR
                 SLP893 =
2017-11-20 01:00 METAR CYCX 200100Z 26012G21KT 12SM -SHRA SCT014 OVC081 04/02 A2915 RMK SC4AC4
                 DA-126FT PRESRR SLP873 =
2017-11-20 00:00 METAR CYCX 200000Z 26014G19KT 10SM -SHRA SCT008 OVC018 08/06 A2909 RMK SF3SC5
                 DA407FT PRESRR SLP852 =
2017-11-19 23:29 METAR CYCX 192329Z 28013G22KT 7SM -SHRA OVC010 09/08 A2905 RMK SC8 DA671FT
                 PRESRR SLP840 =
2017-11-19 23:18 METAR CYCX 192318Z 27019G24KT 3SM SHRA OVC010 10/10 A2904 RMK SC8 DA836FT PRESRR
                 SLP837 =
2017-11-19 23:00 METAR CYCX 192300Z 19012G17KT 12SM BKN018 OVC067 13/11 A2901 RMK SC6AC2 DA1140FT
                 SLP825 =
2017-11-19 22:00 METAR CYCX 192200Z 18012G20KT 12SM BKN018 OVC067 13/12 A2900 RMK SC7AC1 DA1213FT
                 SLP822 =
2017-11-19 21:45 METAR CYCX 192145Z 19012G24KT 12SM BKN016 OVC040 13/12 A2899 RMK SC7SC1 DA1239FT
                 SLP820 =
2017-11-19 21:00 METAR CYCX 192100Z 17012G17KT 11SM -SHRA BKN011 OVC040 14/13 A2899 RMK SF7SC1
                 DA1296FT SLP818 =
2017-11-19 20:18 METAR CYCX 192018Z 18012G17KT 12SM -SHRA BKN013 OVC051 14/12 A2900 RMK SC7SC1
                 DA1330FT PCPN VRY LGT SLP822 =
2017-11-19 20:00 METAR CYCX 192000Z 17009G17KT 12SM BKN012 OVC077 14/13 A2900 RMK SC6AC2 DA1332FT
                 SLP824 =
2017-11-19 19:43 METAR CYCX 191943Z 17012G18KT 11SM -SHRA BKN009 OVC026 14/13 A2902 RMK SF6SC2
                 DA1308FT SLP828 =
2017-11-19 19:32 METAR CYCX 191932Z 18014G20KT 12SM BKN009 OVC026 14/13 A2902 RMK SF7SC1 DA1309FT
                 SLP830 =
2017-11-19 19:00 METAR CYCX 191900Z 18014G20KT 12SM -RA BKN011 OVC015 14/13 A2903 RMK SF7SC1
                 DA1336FT PCPN VRY LGT SLP831 =

Support USWX by starting your Amazon purchase here.